• pl
  • eng

Awiacja
TAF dla lotnisk wojskowych 09:30 25.03.2017

TAF EPBC 250800Z NIL=

TAF EPCE 250800Z 2509/2518 29012KT 9999 BKN013 PROB30 2509/2513
7000 -RA BKN010 BECMG 2513/2515 SCT017 =

TAF EPCE 282300Z 2900/2909 17006KT CAVOK BECMG 2900/2902 BKN020
PROB40 TEMPO 2902/2909 4000 RA BKN008 BKN013 =

TAF EPDA 250800Z NIL=

TAF EPDE 250800Z NIL=

TAF EPIR 250800Z NIL=

TAF EPKS 250800Z 2509/2518 28012KT CAVOK
TEMPO 2510/2513 BKN030
PROB40 2510/2516 28015G25KT =

TAF EPLK 250800Z 2509/2518 29010KT CAVOK=

TAF EPLY 250800Z NIL=

TAF EPMB 250800Z 2509/2518 28012KT CAVOK PROB40 2511/2514 -RA BKN015
OVC033=

TAF EPMI 250800Z NIL=

TAF EPMM 250800Z 2509/2518 27012KT CAVOK TEMPO 2512/2515 SCT033 =

TAF EPOK 250800Z 2509/2518 30014G28KT 9999 BKN016 TEMPO 2512/2515
RA BKN012 =

TAF EPPR 210535Z 25010KT 9999 BKN025 PROB40 TEMPO 2106/2115 5000 SHRA
BKN013CB=

TAF EPPW 250800Z 2509/2518 27015KT 9999 BKN033 PROB40 2510/2517
28015G25KT=

TAF EPSN 250800Z 2509/2518 30012KT 9999 BKN015 PROB40 TEMPO 2510/2515
31014G26KT 5000 RA BKN010 BECMG 2515/2518 SCT020=

TAF EPTM 250800Z 2509/2518 27008KT CAVOK =
Awiacja.imgw.pl jest pogodowym serwisem informacyjnym
Instytutu Meteorologii i Gospodarki Wodnej Państwowego Instytutu Badawczego.
Copyright IMGW PIB 2009-2011© Wszelkie prawa zastrzeżone.